Time;durP1;ratioP1;P1;durP2;ratioP2;P2;SDS_P1;SDS_P2;PMS_P1;PMS_P2;Temp;Humidity;BMP_temperature;BMP_pressure;BME280_temperature;BME280_humidity;BME280_pressure;Samples;Min_cycle;Max_cycle;Signal;HPM_P1;HPM_P2
2021/06/11 00:01:37;;;;;;;1.40;1.30;;;;;;;;;;5114660;28;20183;-81
2021/06/11 00:04:04;;;;;;;1.10;1.10;;;;;;;;;;5114809;28;20219;-81
2021/06/11 00:06:33;;;;;;;1.30;1.25;;;;;;;;;;5114707;28;20211;-82
2021/06/11 00:09:00;;;;;;;1.08;1.08;;;;;;;;;;5115106;28;20558;-81
2021/06/11 00:11:27;;;;;;;1.00;1.00;;;;;;;;;;5114829;28;20185;-81
2021/06/11 00:13:54;;;;;;;1.10;1.10;;;;;;;;;;5114117;28;20219;-81
2021/06/11 00:16:21;;;;;;;1.40;1.33;;;;;;;;;;5114527;28;20206;-84
2021/06/11 00:18:48;;;;;;;1.33;1.33;;;;;;;;;;5114678;28;20277;-81
2021/06/11 00:21:15;;;;;;;1.30;1.20;;;;;;;;;;5114732;28;20180;-81
2021/06/11 00:23:44;;;;;;;1.15;1.15;;;;;;;;;;5114942;28;20219;-84
2021/06/11 00:26:11;;;;;;;1.20;1.20;;;;;;;;;;5114487;28;20608;-81
2021/06/11 00:28:38;;;;;;;1.17;1.17;;;;;;;;;;5114730;28;20252;-81
2021/06/11 00:31:05;;;;;;;1.10;1.10;;;;;;;;;;5114315;28;20244;-81
2021/06/11 00:33:32;;;;;;;1.40;1.13;;;;;;;;;;5114117;28;20735;-81
2021/06/11 00:35:59;;;;;;;1.30;1.20;;;;;;;;;;5113775;27;20677;-81
2021/06/11 00:38:26;;;;;;;1.10;1.10;;;;;;;;;;5114506;28;20239;-81
2021/06/11 00:40:54;;;;;;;2.58;2.38;;;;;;;;;;5116298;28;20279;-81
2021/06/11 00:43:21;;;;;;;1.10;1.10;;;;;;;;;;5120763;28;20204;-82
2021/06/11 00:45:48;;;;;;;1.08;1.08;;;;;;;;;;5120518;28;20606;-82
2021/06/11 00:48:15;;;;;;;1.02;1.02;;;;;;;;;;5120355;28;20206;-82
2021/06/11 00:50:42;;;;;;;0.80;0.80;;;;;;;;;;5121292;28;20203;-83
2021/06/11 00:53:10;;;;;;;1.10;1.10;;;;;;;;;;5121842;28;20203;-81
2021/06/11 00:55:43;;;;;;;0.70;0.70;;;;;;;;;;5121217;28;20215;-82
2021/06/11 00:58:11;;;;;;;1.50;1.40;;;;;;;;;;5120892;28;20290;-82
2021/06/11 01:00:39;;;;;;;1.75;1.65;;;;;;;;;;5120841;28;20188;-82
2021/06/11 01:03:07;;;;;;;1.10;1.10;;;;;;;;;;5120986;27;20247;-82
2021/06/11 01:05:34;;;;;;;0.90;0.90;;;;;;;;;;5120824;28;20220;-81
2021/06/11 01:08:02;;;;;;;0.85;0.85;;;;;;;;;;5119960;28;20188;-83
2021/06/11 01:10:30;;;;;;;1.10;1.10;;;;;;;;;;5120927;28;20213;-83
2021/06/11 01:12:57;;;;;;;1.08;1.08;;;;;;;;;;5120829;28;20500;-85
2021/06/11 01:15:25;;;;;;;0.80;0.80;;;;;;;;;;5119629;28;20212;-83
2021/06/11 01:17:54;;;;;;;1.10;1.10;;;;;;;;;;5119789;28;20272;-81
2021/06/11 01:20:22;;;;;;;1.55;1.50;;;;;;;;;;5117595;28;20669;-83
2021/06/11 01:23:07;;;;;;;2.83;1.40;;;;;;;;;;5120520;28;20561;-81
2021/06/11 01:25:42;;;;;;;1.02;1.02;;;;;;;;;;5120861;28;20231;-82
2021/06/11 01:28:12;;;;;;;1.10;1.10;;;;;;;;;;5120608;28;20248;-82
2021/06/11 01:30:41;;;;;;;1.48;1.38;;;;;;;;;;5121141;28;20184;-83
2021/06/11 01:33:08;;;;;;;1.00;1.00;;;;;;;;;;5120737;28;20315;-82
2021/06/11 01:35:40;;;;;;;1.20;1.20;;;;;;;;;;5120853;28;20227;-83
2021/06/11 01:38:12;;;;;;;1.45;1.35;;;;;;;;;;5120049;28;20223;-82
2021/06/11 01:40:39;;;;;;;1.60;1.60;;;;;;;;;;5120481;28;20184;-82
2021/06/11 01:43:06;;;;;;;1.00;1.00;;;;;;;;;;5120494;28;20245;-81
2021/06/11 01:45:35;;;;;;;1.17;1.17;;;;;;;;;;5120784;28;20270;-82
2021/06/11 01:48:02;;;;;;;1.30;1.20;;;;;;;;;;5120180;28;20199;-82
2021/06/11 01:50:32;;;;;;;1.40;1.30;;;;;;;;;;5120648;28;20211;-82
2021/06/11 01:53:02;;;;;;;1.25;1.20;;;;;;;;;;5120719;28;20685;-82
2021/06/11 01:55:29;;;;;;;1.27;1.27;;;;;;;;;;5120776;28;20227;-82
2021/06/11 01:57:57;;;;;;;1.20;1.20;;;;;;;;;;5120281;28;20203;-82
2021/06/11 02:00:25;;;;;;;1.30;1.30;;;;;;;;;;5120564;28;20184;-83
2021/06/11 02:03:13;;;;;;;1.30;1.20;;;;;;;;;;5119261;28;20184;-84
2021/06/11 02:05:40;;;;;;;1.25;1.25;;;;;;;;;;5121893;28;20276;-82
2021/06/11 02:08:08;;;;;;;1.20;1.20;;;;;;;;;;5123550;28;20556;-82
2021/06/11 02:10:35;;;;;;;1.30;1.30;;;;;;;;;;5122809;28;20188;-83
2021/06/11 02:13:02;;;;;;;1.30;1.20;;;;;;;;;;5123913;28;20272;-83
2021/06/11 02:15:30;;;;;;;1.75;1.65;;;;;;;;;;5122546;28;20230;-83
2021/06/11 02:17:57;;;;;;;1.20;1.20;;;;;;;;;;5123010;28;20203;-83
2021/06/11 02:20:27;;;;;;;1.27;1.27;;;;;;;;;;5123401;28;20199;-83
2021/06/11 02:22:54;;;;;;;1.30;1.30;;;;;;;;;;5123185;28;20187;-83
2021/06/11 02:25:24;;;;;;;1.40;1.40;;;;;;;;;;5123150;28;20207;-82
2021/06/11 02:27:51;;;;;;;1.20;1.20;;;;;;;;;;5122609;28;20195;-82
2021/06/11 02:30:20;;;;;;;1.70;1.60;;;;;;;;;;5122921;28;20236;-82
2021/06/11 02:32:47;;;;;;;1.75;1.65;;;;;;;;;;5123399;28;20249;-83
2021/06/11 02:35:17;;;;;;;1.20;1.20;;;;;;;;;;5123709;28;20219;-83
2021/06/11 02:37:46;;;;;;;1.40;1.30;;;;;;;;;;5124236;28;20199;-82
2021/06/11 02:40:14;;;;;;;1.20;1.20;;;;;;;;;;5123499;28;20678;-84
2021/06/11 02:42:44;;;;;;;1.55;1.45;;;;;;;;;;5123938;28;20210;-83
2021/06/11 02:45:14;;;;;;;1.48;1.38;;;;;;;;;;5108461;28;20222;-84
2021/06/11 02:47:44;;;;;;;1.17;1.17;;;;;;;;;;5121147;28;20211;-84
2021/06/11 02:50:15;;;;;;;1.42;1.35;;;;;;;;;;5121432;28;20195;-86
2021/06/11 02:52:47;;;;;;;1.67;1.58;;;;;;;;;;5113751;28;20207;-84
2021/06/11 02:55:17;;;;;;;1.67;1.58;;;;;;;;;;5120689;28;20214;-83
2021/06/11 02:57:50;;;;;;;1.30;1.30;;;;;;;;;;5122009;28;20221;-84
2021/06/11 03:00:18;;;;;;;1.30;1.20;;;;;;;;;;5119725;28;20602;-83
2021/06/11 03:02:50;;;;;;;1.45;1.35;;;;;;;;;;5120633;28;20200;-84
2021/06/11 03:05:19;;;;;;;1.25;1.20;;;;;;;;;;5103619;28;20216;-83
2021/06/11 03:07:52;;;;;;;1.63;1.52;;;;;;;;;;5115452;28;20199;-82
2021/06/11 03:10:22;;;;;;;1.10;1.10;;;;;;;;;;5114353;28;20210;-85
2021/06/11 03:12:49;;;;;;;1.17;1.15;;;;;;;;;;5113939;28;20202;-82
2021/06/11 03:15:16;;;;;;;1.20;1.20;;;;;;;;;;5118884;28;20237;-85
2021/06/11 03:17:46;;;;;;;1.23;1.23;;;;;;;;;;5121678;28;20192;-85
2021/06/11 03:20:15;;;;;;;1.20;1.20;;;;;;;;;;5121949;28;20208;-84
2021/06/11 03:22:50;;;;;;;1.50;1.40;;;;;;;;;;5121662;28;20196;-83
2021/06/11 03:25:23;;;;;;;1.20;1.20;;;;;;;;;;5121798;28;20219;-84
2021/06/11 03:27:54;;;;;;;1.13;1.13;;;;;;;;;;5121601;28;20188;-84
2021/06/11 03:30:23;;;;;;;1.45;1.35;;;;;;;;;;5122835;28;20196;-83
2021/06/11 03:32:56;;;;;;;1.38;1.38;;;;;;;;;;5120923;28;20245;-85
2021/06/11 03:35:26;;;;;;;1.25;1.20;;;;;;;;;;5121742;28;20224;-84
2021/06/11 03:37:57;;;;;;;1.50;1.40;;;;;;;;;;5119901;28;20195;-84
2021/06/11 03:40:30;;;;;;;1.35;1.35;;;;;;;;;;5120292;28;20242;-84
2021/06/11 03:42:58;;;;;;;1.38;1.38;;;;;;;;;;5121521;28;20255;-84
2021/06/11 03:45:25;;;;;;;1.38;1.30;;;;;;;;;;5122069;28;20219;-83
2021/06/11 03:47:53;;;;;;;1.20;1.20;;;;;;;;;;5116275;28;20674;-85
2021/06/11 03:50:22;;;;;;;1.40;1.30;;;;;;;;;;5121675;28;20200;-83
2021/06/11 03:52:50;;;;;;;1.10;1.10;;;;;;;;;;5123107;28;20180;-84
2021/06/11 03:55:23;;;;;;;1.02;1.02;;;;;;;;;;5122629;28;20216;-82
2021/06/11 03:57:56;;;;;;;1.05;1.05;;;;;;;;;;5122093;28;20195;-84
2021/06/11 04:00:23;;;;;;;1.10;1.10;;;;;;;;;;5121428;28;20208;-83
2021/06/11 04:02:50;;;;;;;1.30;1.30;;;;;;;;;;5120689;28;20184;-82
2021/06/11 04:05:18;;;;;;;1.98;1.25;;;;;;;;;;5120860;28;20273;-83
2021/06/11 04:07:51;;;;;;;1.30;1.30;;;;;;;;;;5121329;28;20196;-85
2021/06/11 04:10:26;;;;;;;2.03;1.92;;;;;;;;;;5119089;28;20555;-84
2021/06/11 04:12:57;;;;;;;1.85;1.75;;;;;;;;;;5104566;28;20228;-85
2021/06/11 04:15:27;;;;;;;1.58;1.48;;;;;;;;;;5117465;28;20211;-83
2021/06/11 04:18:02;;;;;;;1.40;1.40;;;;;;;;;;5118397;28;20236;-83
2021/06/11 04:20:30;;;;;;;1.80;1.70;;;;;;;;;;5118518;28;20195;-84
2021/06/11 04:23:00;;;;;;;1.45;1.45;;;;;;;;;;5119139;28;20196;-84
2021/06/11 04:25:31;;;;;;;1.85;1.75;;;;;;;;;;5120612;28;20220;-85
2021/06/11 04:28:00;;;;;;;1.38;1.38;;;;;;;;;;5118947;28;20184;-84
2021/06/11 04:30:28;;;;;;;1.60;1.50;;;;;;;;;;5118242;28;20210;-84
2021/06/11 04:32:55;;;;;;;1.55;1.45;;;;;;;;;;5117620;28;20302;-84
2021/06/11 04:35:23;;;;;;;1.88;1.77;;;;;;;;;;5118914;27;21086;-85
2021/06/11 04:37:50;;;;;;;1.80;1.70;;;;;;;;;;5119399;28;20243;-85
2021/06/11 04:40:18;;;;;;;1.77;1.67;;;;;;;;;;5118920;28;20199;-84
2021/06/11 04:42:46;;;;;;;2.10;2.00;;;;;;;;;;5118348;28;20192;-84
2021/06/11 04:45:14;;;;;;;1.92;1.83;;;;;;;;;;5118337;28;20264;-84
2021/06/11 04:47:41;;;;;;;1.90;1.80;;;;;;;;;;5119643;28;20192;-83
2021/06/11 04:50:09;;;;;;;1.85;1.75;;;;;;;;;;5119342;28;20200;-85
2021/06/11 04:52:36;;;;;;;1.40;1.40;;;;;;;;;;5109799;28;20283;-85
2021/06/11 04:55:04;;;;;;;1.83;1.73;;;;;;;;;;5114835;28;20287;-84
2021/06/11 04:57:31;;;;;;;1.63;1.52;;;;;;;;;;5118369;28;20203;-84
2021/06/11 05:00:00;;;;;;;2.50;2.30;;;;;;;;;;5118020;28;20210;-85
2021/06/11 05:02:27;;;;;;;1.95;1.85;;;;;;;;;;5118952;28;20630;-85
2021/06/11 05:04:54;;;;;;;1.90;1.80;;;;;;;;;;5113644;28;20689;-85
2021/06/11 05:07:42;;;;;;;1.52;1.42;;;;;;;;;;5116243;28;20203;-85
2021/06/11 05:10:11;;;;;;;1.88;1.77;;;;;;;;;;5114044;28;20662;-85
2021/06/11 05:12:38;;;;;;;1.90;1.80;;;;;;;;;;5115223;28;20200;-84
2021/06/11 05:15:09;;;;;;;1.92;1.83;;;;;;;;;;5112161;28;20215;-84
2021/06/11 05:17:36;;;;;;;2.33;2.22;;;;;;;;;;5120392;28;20200;-85
2021/06/11 05:20:03;;;;;;;2.00;1.90;;;;;;;;;;5120049;28;20207;-83
2021/06/11 05:22:30;;;;;;;2.00;1.90;;;;;;;;;;5102668;28;20192;-85
2021/06/11 05:24:59;;;;;;;2.28;2.17;;;;;;;;;;5121649;28;20362;-84
2021/06/11 05:27:33;;;;;;;3.00;2.80;;;;;;;;;;5119726;28;20200;-84
2021/06/11 05:30:08;;;;;;;2.22;2.13;;;;;;;;;;5115509;28;20189;-84
2021/06/11 05:32:35;;;;;;;1.80;1.70;;;;;;;;;;5115568;28;20268;-85
2021/06/11 05:35:02;;;;;;;2.20;2.10;;;;;;;;;;5119570;28;20717;-83
2021/06/11 05:37:29;;;;;;;2.20;2.10;;;;;;;;;;5119926;28;20243;-84
2021/06/11 05:39:56;;;;;;;2.78;2.58;;;;;;;;;;5120971;28;20204;-85
2021/06/11 05:42:23;;;;;;;3.40;3.13;;;;;;;;;;5119687;28;20195;-84
2021/06/11 05:44:51;;;;;;;2.78;2.58;;;;;;;;;;5118559;28;20245;-83
2021/06/11 05:47:19;;;;;;;2.63;2.42;;;;;;;;;;5110647;28;20204;-85
2021/06/11 05:49:46;;;;;;;2.50;2.30;;;;;;;;;;5115143;27;20194;-85
2021/06/11 05:52:13;;;;;;;6.57;3.70;;;;;;;;;;5108247;28;20192;-85
2021/06/11 05:54:40;;;;;;;3.22;2.95;;;;;;;;;;5094455;28;20220;-85
2021/06/11 05:57:08;;;;;;;3.35;3.15;;;;;;;;;;5103738;28;20204;-85
2021/06/11 05:59:35;;;;;;;2.70;2.50;;;;;;;;;;5117058;28;20196;-84
2021/06/11 06:02:03;;;;;;;2.85;2.65;;;;;;;;;;5118208;28;20259;-85
2021/06/11 06:04:32;;;;;;;2.35;2.25;;;;;;;;;;5118085;28;20314;-85
2021/06/11 06:06:59;;;;;;;2.38;2.28;;;;;;;;;;5116573;28;20210;-84
2021/06/11 06:09:26;;;;;;;2.72;2.17;;;;;;;;;;5118249;28;20196;-85
2021/06/11 06:11:53;;;;;;;2.67;2.47;;;;;;;;;;5117631;28;20207;-84
2021/06/11 06:14:20;;;;;;;3.22;3.00;;;;;;;;;;5118891;28;20223;-84
2021/06/11 06:16:47;;;;;;;3.00;2.80;;;;;;;;;;5118720;28;20563;-86
2021/06/11 06:19:13;;;;;;;2.08;1.98;;;;;;;;;;5118050;28;20684;-85
2021/06/11 06:21:42;;;;;;;2.10;2.00;;;;;;;;;;5118065;28;20216;-86
2021/06/11 06:24:09;;;;;;;3.22;3.03;;;;;;;;;;5118230;28;20211;-85
2021/06/11 06:26:36;;;;;;;3.17;2.97;;;;;;;;;;5117839;28;20199;-85
2021/06/11 06:29:03;;;;;;;3.42;3.10;;;;;;;;;;5118190;28;20208;-84
2021/06/11 06:31:31;;;;;;;2.83;2.63;;;;;;;;;;5117892;28;20282;-85
2021/06/11 06:33:58;;;;;;;2.33;2.22;;;;;;;;;;5116914;28;20232;-85
2021/06/11 06:36:24;;;;;;;2.72;2.53;;;;;;;;;;5117600;28;20606;-85
2021/06/11 06:38:56;;;;;;;3.30;3.10;;;;;;;;;;5116299;28;20200;-84
2021/06/11 06:41:22;;;;;;;2.75;2.55;;;;;;;;;;5116827;28;20314;-85
2021/06/11 06:43:49;;;;;;;2.55;2.35;;;;;;;;;;5116435;28;20273;-86
2021/06/11 06:46:21;;;;;;;2.10;2.00;;;;;;;;;;5116917;28;20657;-85
2021/06/11 06:48:48;;;;;;;2.30;2.10;;;;;;;;;;5116924;28;20203;-85
2021/06/11 06:51:16;;;;;;;3.10;2.90;;;;;;;;;;5121391;28;20195;-85
2021/06/11 06:53:43;;;;;;;2.53;2.42;;;;;;;;;;5121530;28;20302;-87
2021/06/11 06:56:11;;;;;;;3.30;3.00;;;;;;;;;;5118718;28;20195;-85
2021/06/11 06:58:38;;;;;;;2.22;2.13;;;;;;;;;;5118245;28;20224;-85
2021/06/11 07:01:06;;;;;;;2.80;2.60;;;;;;;;;;5118175;28;20296;-84
2021/06/11 07:03:33;;;;;;;2.20;2.10;;;;;;;;;;5118227;28;20255;-85
2021/06/11 07:06:00;;;;;;;1.80;1.70;;;;;;;;;;5117571;28;20676;-84
2021/06/11 07:08:31;;;;;;;2.30;2.20;;;;;;;;;;5117810;28;20233;-84
2021/06/11 07:10:58;;;;;;;2.10;2.00;;;;;;;;;;5117863;28;20195;-85
2021/06/11 07:13:31;;;;;;;1.98;1.88;;;;;;;;;;5117564;28;20205;-85
2021/06/11 07:15:58;;;;;;;2.40;2.30;;;;;;;;;;5117954;28;20632;-85
2021/06/11 07:18:25;;;;;;;2.75;2.55;;;;;;;;;;5117631;28;20206;-84
2021/06/11 07:20:52;;;;;;;4.07;1.92;;;;;;;;;;5117318;28;20210;-84
2021/06/11 07:23:19;;;;;;;1.85;1.75;;;;;;;;;;5117438;28;20203;-85
2021/06/11 07:25:46;;;;;;;2.55;2.45;;;;;;;;;;5117371;28;20196;-84
2021/06/11 07:28:12;;;;;;;2.30;2.20;;;;;;;;;;5117335;28;20673;-85
2021/06/11 07:30:41;;;;;;;2.78;2.58;;;;;;;;;;5117109;28;20199;-84
2021/06/11 07:33:08;;;;;;;2.40;2.28;;;;;;;;;;5116309;28;20227;-84
2021/06/11 07:35:36;;;;;;;2.03;1.92;;;;;;;;;;5116881;28;20219;-85
2021/06/11 07:38:04;;;;;;;2.67;2.47;;;;;;;;;;5117449;28;20245;-85
2021/06/11 07:40:32;;;;;;;2.28;2.10;;;;;;;;;;5117137;28;20258;-85
2021/06/11 07:43:01;;;;;;;2.20;2.10;;;;;;;;;;5117127;28;20199;-85
2021/06/11 07:45:27;;;;;;;1.83;1.73;;;;;;;;;;5117260;28;20280;-85
2021/06/11 07:47:56;;;;;;;2.25;2.05;;;;;;;;;;5116931;28;20575;-84
2021/06/11 07:50:23;;;;;;;2.60;2.45;;;;;;;;;;5117001;27;20218;-85
2021/06/11 07:52:50;;;;;;;2.20;2.10;;;;;;;;;;5116778;27;20214;-85
2021/06/11 07:55:17;;;;;;;1.80;1.70;;;;;;;;;;5116952;28;20235;-85
2021/06/11 07:57:44;;;;;;;2.05;1.95;;;;;;;;;;5117243;28;20749;-85
2021/06/11 08:00:12;;;;;;;1.60;1.50;;;;;;;;;;5116375;28;20199;-84
2021/06/11 08:02:41;;;;;;;1.52;1.42;;;;;;;;;;5116224;28;20207;-84
2021/06/11 08:05:10;;;;;;;2.40;2.30;;;;;;;;;;5116915;27;20222;-85
2021/06/11 08:07:38;;;;;;;2.15;1.95;;;;;;;;;;5116776;28;20324;-84
2021/06/11 08:10:06;;;;;;;1.95;1.85;;;;;;;;;;5116378;27;20621;-85
2021/06/11 08:12:33;;;;;;;4.03;2.30;;;;;;;;;;5116482;28;20200;-84
2021/06/11 08:15:00;;;;;;;2.25;2.15;;;;;;;;;;5116124;28;20265;-85
2021/06/11 08:17:27;;;;;;;1.95;1.85;;;;;;;;;;5116618;28;20198;-85
2021/06/11 08:19:54;;;;;;;1.88;1.77;;;;;;;;;;5116306;28;20211;-85
2021/06/11 08:22:22;;;;;;;2.50;2.30;;;;;;;;;;5115841;28;20215;-84
2021/06/11 08:24:49;;;;;;;1.95;1.85;;;;;;;;;;5115708;28;20874;-85
2021/06/11 08:27:16;;;;;;;1.85;1.75;;;;;;;;;;5115621;28;20204;-85
2021/06/11 08:29:43;;;;;;;1.90;1.80;;;;;;;;;;5116258;28;20240;-84
2021/06/11 08:32:10;;;;;;;2.35;2.15;;;;;;;;;;5116205;28;20713;-85
2021/06/11 08:34:37;;;;;;;2.55;2.45;;;;;;;;;;5115376;28;20701;-85
2021/06/11 08:37:06;;;;;;;2.15;2.05;;;;;;;;;;5115440;27;20204;-85
2021/06/11 08:39:34;;;;;;;2.30;2.20;;;;;;;;;;5115497;28;20614;-85
2021/06/11 08:42:02;;;;;;;2.40;2.30;;;;;;;;;;5115646;28;20772;-85
2021/06/11 08:44:29;;;;;;;1.80;1.70;;;;;;;;;;5116545;28;20227;-85
2021/06/11 08:46:56;;;;;;;1.63;1.52;;;;;;;;;;5115824;28;20198;-85
2021/06/11 08:49:24;;;;;;;1.60;1.50;;;;;;;;;;5115398;28;20196;-85
2021/06/11 08:51:51;;;;;;;1.85;1.75;;;;;;;;;;5115983;28;20207;-85
2021/06/11 08:54:19;;;;;;;1.45;1.45;;;;;;;;;;5115195;28;20220;-85
2021/06/11 08:56:47;;;;;;;1.90;1.80;;;;;;;;;;5115623;28;20204;-85
2021/06/11 08:59:14;;;;;;;1.33;1.25;;;;;;;;;;5117365;27;20245;-85
2021/06/11 09:01:41;;;;;;;1.52;1.45;;;;;;;;;;5116879;28;20226;-85
2021/06/11 09:04:08;;;;;;;1.92;1.83;;;;;;;;;;5116560;28;20649;-85
2021/06/11 09:06:35;;;;;;;2.17;2.08;;;;;;;;;;5115178;28;20207;-85
2021/06/11 09:09:05;;;;;;;2.38;2.28;;;;;;;;;;5115116;27;20200;-84
2021/06/11 09:11:33;;;;;;;2.35;2.25;;;;;;;;;;5116496;28;20600;-85
2021/06/11 09:14:07;;;;;;;2.03;1.92;;;;;;;;;;5115026;28;20224;-85
2021/06/11 09:16:43;;;;;;;1.63;1.52;;;;;;;;;;5115307;28;20196;-85
2021/06/11 09:19:12;;;;;;;2.10;1.90;;;;;;;;;;5115782;28;20203;-85
2021/06/11 09:21:42;;;;;;;2.08;1.98;;;;;;;;;;5114899;28;20617;-85
2021/06/11 09:24:19;;;;;;;2.40;2.30;;;;;;;;;;5114977;28;20226;-85
2021/06/11 09:27:05;;;;;;;2.08;1.98;;;;;;;;;;5115071;28;20199;-85
2021/06/11 09:29:36;;;;;;;2.30;2.08;;;;;;;;;;5114656;28;20285;-86
2021/06/11 09:32:13;;;;;;;2.15;2.05;;;;;;;;;;5114120;27;20286;-86
2021/06/11 09:34:41;;;;;;;4.28;2.80;;;;;;;;;;5115029;28;20223;-85
2021/06/11 09:37:11;;;;;;;3.08;2.88;;;;;;;;;;5115193;28;20199;-85
2021/06/11 09:39:45;;;;;;;3.83;3.58;;;;;;;;;;5115325;28;20196;-85
2021/06/11 09:42:14;;;;;;;3.60;3.30;;;;;;;;;;5115322;28;20596;-85
2021/06/11 09:44:57;;;;;;;2.33;2.15;;;;;;;;;;5114699;28;20247;-85
2021/06/11 09:47:33;;;;;;;2.95;2.75;;;;;;;;;;5114664;28;20198;-85
2021/06/11 09:50:07;;;;;;;2.60;2.40;;;;;;;;;;5114177;28;20283;-85
2021/06/11 09:52:35;;;;;;;2.47;2.30;;;;;;;;;;5114498;28;20195;-85
2021/06/11 09:55:05;;;;;;;2.33;2.22;;;;;;;;;;5114336;28;20306;-85
2021/06/11 09:57:36;;;;;;;2.78;2.58;;;;;;;;;;5115696;28;20352;-85
2021/06/11 10:00:06;;;;;;;2.10;1.90;;;;;;;;;;5115917;28;20195;-85
2021/06/11 10:02:34;;;;;;;1.85;1.75;;;;;;;;;;5114626;28;20241;-85
2021/06/11 10:05:01;;;;;;;2.38;2.25;;;;;;;;;;5114108;28;20227;-85
2021/06/11 10:07:28;;;;;;;2.83;2.63;;;;;;;;;;5113892;28;20222;-85
2021/06/11 10:09:56;;;;;;;3.33;3.13;;;;;;;;;;5113575;28;20219;-85
2021/06/11 10:12:23;;;;;;;2.10;2.00;;;;;;;;;;5114530;28;20261;-85
2021/06/11 10:14:50;;;;;;;2.00;1.80;;;;;;;;;;5114132;28;20701;-85
2021/06/11 10:17:18;;;;;;;3.55;2.60;;;;;;;;;;5113699;28;20738;-85
2021/06/11 10:19:45;;;;;;;2.55;2.45;;;;;;;;;;5113559;28;20204;-85
2021/06/11 10:22:12;;;;;;;2.25;2.15;;;;;;;;;;5113532;28;20245;-85
2021/06/11 10:24:40;;;;;;;2.20;2.10;;;;;;;;;;5113573;28;20220;-85
2021/06/11 10:27:07;;;;;;;3.08;2.88;;;;;;;;;;5114200;28;20256;-85
2021/06/11 10:29:34;;;;;;;2.72;2.60;;;;;;;;;;5114578;28;20200;-85
2021/06/11 10:32:03;;;;;;;3.45;3.13;;;;;;;;;;5114050;28;20199;-85
2021/06/11 10:34:54;;;;;;;4.22;4.00;;;;;;;;;;5090285;28;20216;-85
2021/06/11 10:37:45;;;;;;;4.05;3.75;;;;;;;;;;5115814;28;20210;-85
2021/06/11 10:40:32;;;;;;;4.68;4.28;;;;;;;;;;5112901;28;20203;-86
2021/06/11 10:43:21;;;;;;;4.40;4.10;;;;;;;;;;5115143;28;20211;-85
2021/06/11 10:45:49;;;;;;;3.15;2.95;;;;;;;;;;5115629;28;20253;-85
2021/06/11 10:48:17;;;;;;;3.95;3.75;;;;;;;;;;5114089;28;20536;-84
2021/06/11 10:50:46;;;;;;;7.22;4.18;;;;;;;;;;5113809;28;20294;-85
2021/06/11 10:53:27;;;;;;;3.83;3.53;;;;;;;;;;5113903;28;20204;-85
2021/06/11 10:56:14;;;;;;;3.65;3.45;;;;;;;;;;5113848;28;20246;-85
2021/06/11 10:58:43;;;;;;;3.13;2.92;;;;;;;;;;5114279;28;20578;-85
2021/06/11 11:01:30;;;;;;;2.72;2.53;;;;;;;;;;5114051;28;20199;-85
2021/06/11 11:04:30;;;;;;;2.72;2.53;;;;;;;;;;5113874;28;20681;-85
2021/06/11 11:07:05;;;;;;;4.18;3.03;;;;;;;;;;5113738;28;20200;-86
2021/06/11 11:09:57;;;;;;;2.42;2.30;;;;;;;;;;5113558;28;20209;-85
2021/06/11 11:12:27;;;;;;;2.90;1.80;;;;;;;;;;5113136;28;20199;-86
2021/06/11 11:14:55;;;;;;;3.00;2.83;;;;;;;;;;5113103;28;20223;-86
2021/06/11 11:17:22;;;;;;;3.45;3.25;;;;;;;;;;5112727;28;20658;-86
2021/06/11 11:19:57;;;;;;;3.33;3.13;;;;;;;;;;5112698;28;20651;-85
2021/06/11 11:22:44;;;;;;;3.97;3.13;;;;;;;;;;5112842;28;20322;-86
2021/06/11 11:25:14;;;;;;;2.60;2.50;;;;;;;;;;5105723;28;20216;-85
2021/06/11 11:27:41;;;;;;;3.05;2.67;;;;;;;;;;5114144;28;20202;-85
2021/06/11 11:30:10;;;;;;;3.53;3.05;;;;;;;;;;5112891;28;20192;-86
2021/06/11 11:32:37;;;;;;;3.08;2.88;;;;;;;;;;5112398;28;20223;-86
2021/06/11 11:35:05;;;;;;;3.33;3.03;;;;;;;;;;5112556;28;20223;-86
2021/06/11 11:37:34;;;;;;;2.60;2.40;;;;;;;;;;5114864;28;20210;-85
2021/06/11 11:40:03;;;;;;;3.22;3.03;;;;;;;;;;5116708;28;20202;-86
2021/06/11 11:42:30;;;;;;;2.58;2.38;;;;;;;;;;5116288;28;20292;-87
2021/06/11 11:44:57;;;;;;;3.30;3.00;;;;;;;;;;5116159;28;20665;-86
2021/06/11 11:47:23;;;;;;;3.22;2.67;;;;;;;;;;5116127;28;20211;-86
2021/06/11 11:49:50;;;;;;;2.92;2.72;;;;;;;;;;5116127;28;20648;-86
2021/06/11 11:52:17;;;;;;;3.40;3.10;;;;;;;;;;5116035;28;20207;-85
2021/06/11 11:54:44;;;;;;;4.00;3.65;;;;;;;;;;5115886;28;20562;-86
2021/06/11 11:57:12;;;;;;;3.67;3.38;;;;;;;;;;5115937;28;20247;-85
2021/06/11 11:59:39;;;;;;;3.70;3.40;;;;;;;;;;5115657;28;20196;-86
2021/06/11 12:02:08;;;;;;;3.10;2.90;;;;;;;;;;5115631;28;20223;-86
2021/06/11 12:04:35;;;;;;;4.63;4.32;;;;;;;;;;5115775;28;20631;-86
2021/06/11 12:07:02;;;;;;;3.50;3.20;;;;;;;;;;5115903;27;20244;-86
2021/06/11 12:09:31;;;;;;;2.88;2.67;;;;;;;;;;5115944;28;20199;-86
2021/06/11 12:11:58;;;;;;;2.90;2.70;;;;;;;;;;5116946;28;20196;-86
2021/06/11 12:14:26;;;;;;;3.20;3.00;;;;;;;;;;5115474;28;20216;-86
2021/06/11 12:16:53;;;;;;;2.97;2.78;;;;;;;;;;5115650;28;20269;-85
2021/06/11 12:19:20;;;;;;;2.80;2.60;;;;;;;;;;5115680;28;20203;-85
2021/06/11 12:21:47;;;;;;;2.78;2.58;;;;;;;;;;5115796;28;20590;-86
2021/06/11 12:24:15;;;;;;;3.42;3.13;;;;;;;;;;5114942;28;20227;-87
2021/06/11 12:26:42;;;;;;;3.63;3.33;;;;;;;;;;5115188;28;20680;-86
2021/06/11 12:29:09;;;;;;;2.78;2.58;;;;;;;;;;5115162;28;20200;-87
2021/06/11 12:31:37;;;;;;;3.55;3.35;;;;;;;;;;5115981;28;20203;-86
2021/06/11 12:34:04;;;;;;;4.30;4.00;;;;;;;;;;5115295;28;20716;-86
2021/06/11 12:36:31;;;;;;;2.90;2.70;;;;;;;;;;5115556;28;20559;-85
2021/06/11 12:38:58;;;;;;;2.83;2.63;;;;;;;;;;5115507;28;20231;-85
2021/06/11 12:41:27;;;;;;;3.50;3.22;;;;;;;;;;5140669;22;20224;-85
2021/06/11 12:46:42;;;;;;;3.53;3.22;;;;;;;;;;5073878;28;20315;-84
2021/06/11 12:50:17;;;;;;;2.75;2.55;;;;;;;;;;5184515;27;20511;-85
2021/06/11 12:52:44;;;;;;;2.08;1.98;;;;;;;;;;5151880;27;20229;-83
2021/06/11 12:55:12;;;;;;;2.28;2.15;;;;;;;;;;5151577;27;20197;-86
2021/06/11 12:57:40;;;;;;;3.58;3.20;;;;;;;;;;5151184;27;20194;-83
2021/06/11 13:00:09;;;;;;;3.38;2.97;;;;;;;;;;5151246;27;20198;-84
2021/06/11 13:02:36;;;;;;;2.55;2.35;;;;;;;;;;5150830;27;20222;-83
2021/06/11 13:05:04;;;;;;;1.90;1.80;;;;;;;;;;5150229;27;20209;-83
2021/06/11 13:07:32;;;;;;;2.50;2.30;;;;;;;;;;5150721;27;20208;-83
2021/06/11 13:09:59;;;;;;;2.00;1.90;;;;;;;;;;5150304;27;20674;-82
2021/06/11 13:12:26;;;;;;;2.20;2.00;;;;;;;;;;5150141;27;20222;-82
2021/06/11 13:14:53;;;;;;;1.95;1.85;;;;;;;;;;5149557;27;20194;-82
2021/06/11 13:17:20;;;;;;;2.38;2.22;;;;;;;;;;5150722;27;20258;-84
2021/06/11 13:19:47;;;;;;;2.80;2.10;;;;;;;;;;5150335;27;20206;-85
2021/06/11 13:22:14;;;;;;;3.15;1.85;;;;;;;;;;5150556;27;20223;-84
2021/06/11 13:24:42;;;;;;;2.60;2.40;;;;;;;;;;5150231;27;20198;-83
2021/06/11 13:27:09;;;;;;;5.38;3.47;;;;;;;;;;5149826;27;20198;-83
2021/06/11 13:29:36;;;;;;;2.38;2.25;;;;;;;;;;5149746;27;20711;-83
2021/06/11 13:32:03;;;;;;;2.40;2.20;;;;;;;;;;5149874;27;20218;-84
2021/06/11 13:34:30;;;;;;;2.75;2.63;;;;;;;;;;5150378;27;20202;-83
2021/06/11 13:36:57;;;;;;;2.47;1.92;;;;;;;;;;5150370;27;20263;-84
2021/06/11 13:39:24;;;;;;;1.85;1.75;;;;;;;;;;5150631;27;20195;-83
2021/06/11 13:41:52;;;;;;;2.40;2.15;;;;;;;;;;5150620;27;20229;-84
2021/06/11 13:44:19;;;;;;;2.50;2.35;;;;;;;;;;5149436;27;20197;-83
2021/06/11 13:46:46;;;;;;;1.95;1.85;;;;;;;;;;5150188;27;20625;-84
2021/06/11 13:49:13;;;;;;;2.83;2.63;;;;;;;;;;5151223;27;20279;-84
2021/06/11 13:51:40;;;;;;;2.55;2.45;;;;;;;;;;5149621;27;20218;-85
2021/06/11 13:54:07;;;;;;;2.20;2.10;;;;;;;;;;5150106;27;20223;-85
2021/06/11 13:56:34;;;;;;;2.60;2.40;;;;;;;;;;5150518;27;20231;-84
2021/06/11 13:59:03;;;;;;;2.70;2.10;;;;;;;;;;5143529;27;20206;-84
2021/06/11 14:01:30;;;;;;;2.97;2.65;;;;;;;;;;5117177;27;20208;-84
2021/06/11 14:03:57;;;;;;;1.95;1.85;;;;;;;;;;5115872;28;20199;-84
2021/06/11 14:06:24;;;;;;;1.95;1.85;;;;;;;;;;5116888;28;20196;-84
2021/06/11 14:08:50;;;;;;;2.47;2.28;;;;;;;;;;5115940;28;20215;-84
2021/06/11 14:11:17;;;;;;;2.13;2.03;;;;;;;;;;5115763;28;20302;-84
2021/06/11 14:13:47;;;;;;;1.92;1.83;;;;;;;;;;5116548;28;20195;-84
2021/06/11 14:16:15;;;;;;;2.15;2.05;;;;;;;;;;5117083;28;20235;-85
2021/06/11 14:18:42;;;;;;;2.45;2.25;;;;;;;;;;5115842;28;20626;-84
2021/06/11 14:21:09;;;;;;;1.90;1.80;;;;;;;;;;5114424;28;20227;-85
2021/06/11 14:23:36;;;;;;;1.65;1.55;;;;;;;;;;5114672;28;20200;-85
2021/06/11 14:26:03;;;;;;;1.70;1.60;;;;;;;;;;5115739;28;20180;-86
2021/06/11 14:28:30;;;;;;;1.45;1.45;;;;;;;;;;5113923;28;20242;-85
2021/06/11 14:30:57;;;;;;;1.70;1.60;;;;;;;;;;5114154;28;20306;-84
2021/06/11 14:33:25;;;;;;;1.75;1.65;;;;;;;;;;5114064;28;20199;-84
2021/06/11 14:35:52;;;;;;;1.13;1.13;;;;;;;;;;5113930;28;20207;-86
2021/06/11 14:38:19;;;;;;;1.45;1.38;;;;;;;;;;5114712;28;20267;-84
2021/06/11 14:40:47;;;;;;;2.25;2.08;;;;;;;;;;5114267;28;20256;-85
2021/06/11 14:43:15;;;;;;;1.50;1.40;;;;;;;;;;5114426;28;20552;-87
2021/06/11 14:45:42;;;;;;;1.55;1.45;;;;;;;;;;5114289;28;20215;-85
2021/06/11 14:48:11;;;;;;;1.48;1.40;;;;;;;;;;5112892;27;20672;-85
2021/06/11 14:50:41;;;;;;;1.70;1.60;;;;;;;;;;5113574;28;20219;-88
2021/06/11 14:53:10;;;;;;;1.88;1.77;;;;;;;;;;5113033;28;20252;-86
2021/06/11 14:55:41;;;;;;;2.00;1.90;;;;;;;;;;5112524;28;20243;-85
2021/06/11 14:58:08;;;;;;;1.90;1.70;;;;;;;;;;5112713;28;20282;-88